ADDS METAR Data INFO
IDs: Format: Raw Decoded Include TAF

Data at: 2256 UTC 22 Jun 2018

KENL 222235Z AUTO 31007KT 10SM BKN021 BKN037 BKN048 24/21 A2970 RMK AO2 LTG DSNT E T02440207
KENL 222215Z AUTO 30013G16KT 10SM SCT021 SCT070 24/20 A2970 RMK AO2 LTG DSNT NE T02420201
KENL 222155Z AUTO 30011G16KT 10SM SCT023 SCT031 SCT038 24/21 A2970 RMK AO2 T02360205
KENL 222135Z AUTO 30010KT 10SM SCT021 SCT034 24/20 A2970 RMK AO2 T02400201
KENL 222115Z AUTO 30010G14KT 10SM SCT018 SCT120 24/21 A2970 RMK AO2 T02430209
KENL 222055Z AUTO 31012G17KT 10SM SCT014 SCT028 SCT039 23/21 A2970 RMK AO2 P0001 60002 T02340212
KENL 222035Z AUTO 28011KT 10SM -RA SCT012 SCT036 BKN048 23/21 A2970 RMK AO2 P0001 T02260213
KENL 222015Z AUTO 28008KT 10SM SCT012 SCT035 SCT047 22/21 A2970 RMK AO2 LTG DSNT NE AND E T02210208
KENL 221955Z AUTO 29009KT 10SM SCT050 SCT070 BKN110 22/21 A2970 RMK AO2 LTG DSNT N AND SE P0001 T02240207
KENL 221935Z AUTO 27008KT 7SM -RA SCT014 BKN050 OVC070 21/20 A2971 RMK AO2 P0001 T02070202
KENL 221915Z AUTO 30011G14KT 10SM -RA SCT014 BKN032 OVC070 22/21 A2970 RMK AO2 LTG DSNT E T02210207
KENL 221855Z AUTO 28010KT 10SM SCT027 SCT035 BKN044 23/20 A2970 RMK AO2 LTG DSNT W T02270200
KENL 221835Z AUTO 26012KT 10SM SCT019 SCT025 SCT038 24/20 A2970 RMK AO2 T02350200
KENL 221815Z AUTO 26010KT 10SM SCT019 BKN027 BKN034 24/21 A2970 RMK AO2 LTG DSNT N T02380208
KENL 221755Z AUTO 31005KT 7SM -RA SCT021 BKN027 BKN033 23/21 A2970 RMK AO2 P0002 60005 T02260206 10243 20195
KENL 221735Z AUTO 27007KT 10SM BKN025 OVC034 24/20 A2970 RMK AO2 LTG DSNT NE T02390202
KENL 221715Z AUTO 27006KT 10SM BKN025 BKN030 BKN037 24/19 A2970 RMK AO2 T02410194
KENL 221655Z AUTO 31006KT 10SM SCT023 SCT027 BKN095 24/19 A2970 RMK AO2 LTG DSNT N T02370194
KENL 221635Z AUTO 28008KT 10SM SCT021 BKN026 23/19 A2970 RMK AO2 T02340193
KENL 221615Z AUTO 29007KT 10SM BKN018 BKN026 23/19 A2970 RMK AO2 T02310194
KENL 221555Z AUTO 28008KT 10SM BKN018 BKN024 23/20 A2970 RMK AO2 T02250197
KENL 221535Z AUTO 30008KT 10SM SCT016 SCT024 23/20 A2969 RMK AO2 T02270195
KENL 221515Z AUTO 31005KT 10SM SCT009 BKN014 OVC037 22/20 A2969 RMK AO2 T02220200
KENL 221455Z AUTO 30005KT 10SM SCT010 SCT024 OVC035 21/20 A2970 RMK AO2 60003 T02110197
KENL 221435Z AUTO 31005KT 10SM SCT007 BKN024 OVC031 21/20 A2970 RMK AO2 T02070195
KENL 221415Z AUTO 34005KT 10SM SCT007 SCT014 BKN019 21/20 A2969 RMK AO2 T02080199
KENL 221355Z AUTO 29003KT 3SM -RA SCT005 BKN020 OVC030 20/20 A2969 RMK AO2 P0002 T02010198
KENL 221335Z AUTO 28005KT 7SM SCT007 OVC015 20/20 A2969 RMK AO2 T02000196
KENL 221315Z AUTO 25003KT 10SM OVC009 20/20 A2969 RMK AO2 T01990195
KENL 221255Z AUTO 00000KT 10SM OVC006 20/20 A2969 RMK AO2 P0001 T01960195
KENL 221235Z AUTO 00000KT 2 1/2SM -DZ OVC006 20/19 A2969 RMK AO2 P0001 T01950194
KENL 221215Z AUTO 00000KT 10SM -RA BKN008 OVC011 20/19 A2969 RMK AO2 P0001 T01960193
KENL 221155Z AUTO 00000KT 10SM -RA BKN012 BKN023 OVC029 20/19 A2969 RMK AO2 P0005 60005 70080 T01950193 10197 20187
KENL 221135Z AUTO 00000KT 5SM RA SCT012 BKN027 OVC032 20/19 A2968 RMK AO2 P0004 T01970194
KENL 221115Z AUTO 00000KT 4SM RA BKN017 OVC032 20/19 A2969 RMK AO2 P0001 T01950192
KENL 221055Z AUTO 00000KT 10SM SCT015 SCT029 OVC095 19/19 A2969 RMK AO2 T01920190
KENL 221035Z AUTO 00000KT 10SM BKN033 OVC095 19/19 A2968 RMK AO2 T01920188
KENL 221015Z AUTO 00000KT 10SM BKN031 BKN048 OVC070 19/19 A2968 RMK AO2 LTG DSNT SW T01920190
KENL 220955Z AUTO 00000KT 10SM OVC060 19/19 A2967 RMK AO2 T01920188
KENL 220935Z AUTO 00000KT 10SM OVC060 19/19 A2967 RMK AO2 LTG DSNT SW T01920186
KENL 220915Z AUTO 17003KT 10SM SCT035 SCT049 OVC060 19/19 A2967 RMK AO2 T01910186
KENL 220855Z AUTO 00000KT 10SM SCT037 SCT048 OVC050 19/19 A2967 RMK AO2 T01920187
KENL 220835Z AUTO 00000KT 10SM BKN037 BKN046 OVC065 19/19 A2967 RMK AO2 T01920188
KENL 220815Z AUTO 00000KT 10SM OVC039 19/19 A2967 RMK AO2 T01920188
KENL 220755Z AUTO 00000KT 10SM SCT041 BKN050 OVC065 19/19 A2967 RMK AO2 T01900186
KENL 220735Z AUTO 00000KT 10SM SCT065 BKN080 OVC110 19/19 A2967 RMK AO2 T01890186
KENL 220715Z AUTO 00000KT 10SM SCT065 SCT080 OVC110 19/19 A2967 RMK AO2 T01880186
KENL 220655Z AUTO 00000KT 10SM BKN075 BKN090 19/19 A2968 RMK AO2 T01900187
KENL 220635Z AUTO 00000KT 10SM SCT060 BKN085 19/19 A2969 RMK AO2 T01870186
KENL 220615Z AUTO 00000KT 10SM SCT047 BKN060 19/19 A2969 RMK AO2 T01900186
KENL 220555Z AUTO 00000KT 10SM BKN047 OVC060 19/19 A2970 RMK AO2 T01900185 10205 20190 402960187
KENL 220535Z AUTO 00000KT 10SM SCT047 BKN050 OVC070 19/18 A2971 RMK AO2 T01900182
KENL 220515Z AUTO 23003KT 10SM OVC050 19/19 A2972 RMK AO2 T01930187
KENL 220455Z AUTO 00000KT 10SM OVC050 19/18 A2972 RMK AO2 T01900184
KENL 220435Z AUTO 21003KT 10SM BKN046 19/19 A2972 RMK AO2 T01900187
KENL 220415Z AUTO 21003KT 10SM BKN050 19/19 A2972 RMK AO2 T01920191
KENL 220355Z AUTO 00000KT 10SM CLR 19/19 A2972 RMK AO2 T01920190
KENL 220335Z AUTO 00000KT 10SM CLR 19/19 A2972 RMK AO2 T01930191
KENL 220315Z AUTO 00000KT 10SM CLR 19/19 A2972 RMK AO2 T01920189
KENL 220255Z AUTO 00000KT 10SM SCT110 20/18 A2972 RMK AO2 T01950184
KENL 220235Z AUTO 00000KT 10SM BKN110 20/18 A2972 RMK AO2 T02000180
KENL 220215Z AUTO 26005KT 10SM BKN110 21/18 A2972 RMK AO2 T02050179
KENL 220155Z AUTO 25008KT 10SM CLR 20/18 A2972 RMK AO2 T02020180
KENL 220135Z AUTO 24010KT 10SM CLR 21/19 A2972 RMK AO2 T02050190
KENL 220115Z AUTO 24010KT 10SM CLR 20/20 A2971 RMK AO2 T02020196
KENL 220055Z AUTO 23004KT 10SM SCT090 20/20 A2970 RMK AO2 T02000197
KENL 220035Z AUTO 00000KT 10SM OVC090 20/19 A2970 RMK AO2 T02010193
KENL 220015Z AUTO 23003KT 10SM BKN090 BKN120 20/19 A2969 RMK AO2 LTG DSNT N T02000189
KENL 212355Z AUTO 00000KT 10SM SCT100 BKN120 20/19 A2970 RMK AO2 60075 T02000186 10284 20187
KENL 212335Z AUTO 18003KT 10SM OVC110 20/19 A2970 RMK AO2 T02020189
KENL 212315Z AUTO 00000KT 10SM SCT070 SCT080 BKN120 19/19 A2970 RMK AO2 T01920185
KENL 212255Z AUTO 21008KT 10SM -RA SCT055 SCT070 BKN110 19/19 A2970 RMK AO2 LTG DSNT S P0014 T01910186
KENL 212235Z AUTO 20007KT 10SM -RA SCT044 SCT065 BKN110 19/19 A2970 RMK AO2 LTG DSNT S THRU W P0014 T01910189
KENL 212215Z AUTO 01006KT 4SM +TSRA SCT011 BKN029 OVC060 19/19 A2970 RMK AO2 LTG DSNT SE AND SW P0014 T01870185
KENL 212155Z AUTO 31011G18KT 3/4SM +TSRA BKN011 OVC038 19/19 A2972 RMK AO2 LTG DSNT N SE AND W P0053 T01910187
KENL 212135Z AUTO 28009KT 10SM -TSRA BKN039 BKN080 OVC110 23/19 A2969 RMK AO2 LTG DSNT W THRU N T02290192
KENL 212115Z AUTO 24003KT 10SM VCTS SCT029 BKN070 OVC095 24/19 A2968 RMK AO2 LTG DSNT W THRU NE T02420190
KENL 212055Z AUTO 34012G17KT 10SM VCTS SCT022 BKN031 BKN035 25/20 A2968 RMK AO2 LTG DSNT N SE AND W 60006 T02450197
KENL 212035Z AUTO 11003KT 10SM SCT017 SCT120 27/24 A2969 RMK AO2 LTG DSNT NW T02740237
KENL 212015Z AUTO 18003KT 10SM VCTS SCT017 27/23 A2969 RMK AO2 LTG DSNT NW T02720232
KENL 211955Z AUTO 00000KT 10SM CLR 27/23 A2969 RMK AO2 LTG DSNT NW T02670233
KENL 211935Z AUTO 14003KT 10SM CLR 25/22 A2970 RMK AO2 LTG DSNT NE SE AND NW T02530224
KENL 211915Z AUTO 08003KT 10SM VCTS SCT039 SCT045 SCT070 23/21 A2972 RMK AO2 LTG DSNT N AND NE T02340212
KENL 211855Z AUTO 36005KT 10SM -TSRA SCT023 BKN033 OVC120 22/21 A2972 RMK AO2 LTG DSNT ALQS P0006 T02230209
KENL 211835Z AUTO 28010G19KT 7SM TSRA SCT020 BKN033 OVC085 23/20 A2974 RMK AO2 LTG DSNT ALQS P0001 T02310203
KENL 211815Z AUTO 15008KT 10SM TS SCT036 SCT048 BKN085 28/21 A2971 RMK AO2 LTG DSNT SW THRU N T02760213
KENL 211755Z AUTO 15007KT 10SM SCT036 BKN085 29/22 A2971 RMK AO2 LTG DSNT SW THRU N T02850215 10296 20225
KENL 211735Z AUTO 16004KT 10SM SCT032 SCT041 30/22 A2971 RMK AO2 LTG DSNT SW THRU NW T02950218
KENL 211715Z AUTO 18006KT 10SM SCT032 SCT041 28/21 A2971 RMK AO2 LTG DSNT NW T02840214
KENL 211655Z AUTO 17004KT 10SM SCT030 29/22 A2972 RMK AO2 LTG DSNT NW T02870216
KENL 211635Z AUTO 22005KT 10SM SCT026 SCT032 28/22 A2974 RMK AO2 T02810218
KENL 211615Z AUTO 23008KT 10SM SCT023 SCT033 SCT045 28/22 A2975 RMK AO2 LTG DSNT NW T02750218
KENL 211555Z AUTO 21008KT 10SM SCT023 SCT033 SCT039 27/22 A2975 RMK AO2 LTG DSNT W T02710223
KENL 211535Z AUTO 24007KT 10SM SCT021 SCT026 BKN050 26/22 A2976 RMK AO2 T02630220
KENL 211515Z AUTO 23007KT 10SM SCT019 BKN025 BKN050 26/22 A2976 RMK AO2 T02640221
KENL 211455Z AUTO 24007KT 10SM BKN019 OVC025 26/22 A2976 RMK AO2 T02620224
KENL 211435Z AUTO 24006KT 10SM BKN019 26/22 A2976 RMK AO2 T02550222
KENL 211355Z AUTO 23004KT 10SM SCT011 OVC017 24/22 A2978 RMK AO2 T02430223
KENL 211335Z AUTO 23008KT 10SM BKN010 OVC015 24/23 A2978 RMK AO2 T02410225
KENL 211315Z AUTO 23007KT 10SM OVC012 23/23 A2978 RMK AO2 T02340225
KENL 211255Z AUTO 24007KT 10SM BKN007 OVC013 23/23 A2978 RMK AO2 T02310226
KENL 211235Z AUTO 24007KT 210V020 10SM BKN007 BKN013 OVC031 23/23 A2978 RMK AO2 T02290226
KENL 211215Z AUTO 24006KT 10SM BKN007 OVC017 23/23 A2977 RMK AO2 T02260225
KENL 211155Z AUTO 22007KT 10SM BKN009 OVC013 23/22 A2977 RMK AO2 60006 70006 T02260224 10235 20217
KENL 211135Z AUTO 22006KT 10SM SCT009 BKN013 OVC019 23/22 A2978 RMK AO2 T02250223
KENL 211115Z AUTO 21006KT 10SM -RA SCT008 BKN012 OVC041 22/22 A2978 RMK AO2 T02230222